Aviation Digital Data Service (ADDS)

Output produced by TAFs form (1550 UTC 19 September 2014)
found at http://aviationweather.gov/adds/tafs/
 
KTUS 191500Z 1915/2012 14005KT P6SM VCSH BKN040 
     FM191700 19005KT P6SM SCT040 BKN070 
     FM192000 29007KT P6SM VCSH SCT050 BKN080 
     FM200600 14005KT P6SM SCT090